createdAt,value
2022-08-11T00:01:55.605Z,22.16
2022-08-11T00:04:26.159Z,22.11
2022-08-11T00:06:54.337Z,22.14
2022-08-11T00:09:24.487Z,22.15
2022-08-11T00:11:53.114Z,22.20
2022-08-11T00:14:22.873Z,22.16
2022-08-11T00:16:57.170Z,22.14
2022-08-11T00:20:11.857Z,22.15
2022-08-11T00:22:21.780Z,22.25
2022-08-11T00:24:54.933Z,22.27
2022-08-11T00:27:33.407Z,22.35
2022-08-11T00:30:01.120Z,22.36
2022-08-11T00:32:31.552Z,22.34
2022-08-11T00:35:54.533Z,22.11
2022-08-11T00:37:50.616Z,22.33
2022-08-11T00:40:24.672Z,22.42
2022-08-11T00:43:03.196Z,22.40
2022-08-11T00:45:34.590Z,22.40
2022-08-11T00:48:06.982Z,22.44
2022-08-11T00:50:45.570Z,22.47
2022-08-11T00:53:36.648Z,22.42
2022-08-11T00:56:19.319Z,22.40
2022-08-11T00:59:35.040Z,22.43
2022-08-11T01:02:15.950Z,22.46
2022-08-11T01:05:34.195Z,22.48
2022-08-11T01:08:32.300Z,22.42
2022-08-11T01:11:55.610Z,22.40
2022-08-11T01:14:57.250Z,22.33
2022-08-11T01:17:58.950Z,22.21
2022-08-11T01:20:59.653Z,22.10
2022-08-11T01:24:00.767Z,22.03
2022-08-11T01:26:55.384Z,21.94
2022-08-11T01:29:59.786Z,21.87
2022-08-11T01:33:08.456Z,21.83
2022-08-11T01:35:50.129Z,21.80
2022-08-11T01:38:56.380Z,21.81
2022-08-11T01:42:00.937Z,21.75
2022-08-11T01:45:02.332Z,21.77
2022-08-11T01:47:53.178Z,21.67
2022-08-11T01:50:51.566Z,21.68
2022-08-11T01:53:35.736Z,21.60
2022-08-11T01:56:14.303Z,21.55
2022-08-11T01:58:47.107Z,21.44
2022-08-11T02:01:38.486Z,21.41
2022-08-11T02:04:12.780Z,21.39
2022-08-11T02:06:55.640Z,21.31
2022-08-11T02:09:36.157Z,21.32
2022-08-11T02:12:13.613Z,21.41
2022-08-11T02:14:53.655Z,21.33
2022-08-11T02:17:42.828Z,21.20
2022-08-11T02:20:38.074Z,21.21
2022-08-11T02:24:03.690Z,21.18
2022-08-11T02:26:24.103Z,21.07
2022-08-11T02:29:03.249Z,21.04
2022-08-11T02:32:14.910Z,20.95
2022-08-11T02:34:59.836Z,20.91
2022-08-11T02:37:38.334Z,20.84
2022-08-11T02:40:21.634Z,20.83
2022-08-11T02:42:59.244Z,20.82
2022-08-11T02:45:36.067Z,20.71
2022-08-11T02:48:24.892Z,20.87
2022-08-11T02:50:57.477Z,20.74
2022-08-11T02:53:29.636Z,20.66
2022-08-11T02:56:03.444Z,20.62
2022-08-11T02:58:39.794Z,20.53
2022-08-11T03:01:16.847Z,20.54
2022-08-11T03:03:51.680Z,20.49
2022-08-11T03:06:26.240Z,20.54
2022-08-11T03:08:57.465Z,20.48
2022-08-11T03:12:09.049Z,20.49
2022-08-11T03:14:59.547Z,20.49
2022-08-11T03:17:31.936Z,20.46
2022-08-11T03:20:22.533Z,20.41
2022-08-11T03:22:55.685Z,20.30
2022-08-11T03:25:31.913Z,20.26
2022-08-11T03:28:09.747Z,20.30
2022-08-11T03:30:45.402Z,20.25
2022-08-11T03:33:38.357Z,20.22
2022-08-11T03:36:12.159Z,20.18
2022-08-11T03:38:49.988Z,20.15
2022-08-11T03:42:02.425Z,20.25
2022-08-11T03:44:39.575Z,20.21
2022-08-11T03:47:20.853Z,20.28
2022-08-11T03:50:02.524Z,20.31
2022-08-11T03:52:47.968Z,20.27
2022-08-11T03:55:22.382Z,20.18
2022-08-11T03:58:15.616Z,20.24
2022-08-11T04:00:58.836Z,20.26
2022-08-11T04:04:00.105Z,20.24
2022-08-11T04:06:56.735Z,20.30
2022-08-11T04:10:01.906Z,20.37
2022-08-11T04:12:44.264Z,20.32
2022-08-11T04:16:00.853Z,20.39
2022-08-11T04:19:29.765Z,20.43
2022-08-11T04:22:23.322Z,20.39
2022-08-11T04:25:12.159Z,20.38
2022-08-11T04:28:28.633Z,20.32
2022-08-11T04:31:05.523Z,20.39
2022-08-11T04:33:56.538Z,20.38
2022-08-11T04:36:56.465Z,20.39
2022-08-11T04:39:40.881Z,20.50
2022-08-11T04:42:45.108Z,20.48
2022-08-11T04:45:39.351Z,20.59
2022-08-11T04:48:53.630Z,20.56
2022-08-11T04:51:52.802Z,20.69
2022-08-11T04:54:48.061Z,20.69
2022-08-11T04:57:39.335Z,20.69
2022-08-11T05:00:26.217Z,20.77
2022-08-11T05:03:28.704Z,20.83
2022-08-11T05:06:48.985Z,20.90
2022-08-11T05:09:47.585Z,20.97
2022-08-11T05:12:31.359Z,20.98
2022-08-11T05:15:17.282Z,21.12
2022-08-11T05:18:04.717Z,21.16
2022-08-11T05:20:50.703Z,21.22
2022-08-11T05:23:39.629Z,21.12
2022-08-11T05:26:47.117Z,21.35
2022-08-11T05:29:58.455Z,21.37
2022-08-11T05:32:49.010Z,21.43
2022-08-11T05:36:00.611Z,21.49
2022-08-11T05:38:23.695Z,21.48
2022-08-11T05:41:10.721Z,21.63
2022-08-11T05:44:21.413Z,21.64
2022-08-11T05:47:05.734Z,21.73
2022-08-11T05:49:52.119Z,21.82
2022-08-11T05:52:41.819Z,21.88
2022-08-11T05:55:28.574Z,21.98
2022-08-11T05:57:57.486Z,21.94
2022-08-11T06:00:27.314Z,22.11
2022-08-11T06:03:07.279Z,22.09
2022-08-11T06:05:38.335Z,22.24
2022-08-11T06:08:12.273Z,22.19
2022-08-11T06:10:42.041Z,22.31
2022-08-11T06:13:10.496Z,22.33
2022-08-11T06:15:47.478Z,22.55
2022-08-11T06:18:15.692Z,22.57
2022-08-11T06:20:50.857Z,22.77
2022-08-11T06:23:20.562Z,22.67
2022-08-11T06:25:48.897Z,22.78
2022-08-11T06:28:20.719Z,22.80
2022-08-11T06:30:50.241Z,23.02
2022-08-11T06:33:21.535Z,23.09
2022-08-11T06:36:00.509Z,23.16
2022-08-11T06:38:39.766Z,23.25
2022-08-11T06:41:33.409Z,23.38
2022-08-11T06:44:08.654Z,23.63
2022-08-11T06:46:40.207Z,23.70
2022-08-11T06:49:30.100Z,23.84
2022-08-11T06:52:01.574Z,23.97
2022-08-11T06:54:31.148Z,24.05
2022-08-11T06:57:32.151Z,24.17
2022-08-11T07:00:18.140Z,24.28
2022-08-11T07:02:56.171Z,24.47
2022-08-11T07:05:25.714Z,24.64
2022-08-11T07:09:03.514Z,24.67
2022-08-11T07:12:14.175Z,24.89
2022-08-11T07:15:08.149Z,24.91
2022-08-11T07:17:40.441Z,24.91
2022-08-11T07:20:29.037Z,25.13
2022-08-11T07:23:17.014Z,25.14
2022-08-11T07:26:04.076Z,25.33
2022-08-11T07:28:50.448Z,25.42
2022-08-11T07:31:21.432Z,25.45
2022-08-11T07:34:08.529Z,25.66
2022-08-11T07:36:41.279Z,25.90
2022-08-11T07:39:16.973Z,25.99
2022-08-11T07:41:44.972Z,26.09
2022-08-11T07:44:13.077Z,26.35
2022-08-11T07:46:59.851Z,26.22
2022-08-11T07:49:47.343Z,26.38
2022-08-11T07:52:30.379Z,26.41
2022-08-11T07:54:59.590Z,26.67
2022-08-11T07:58:14.047Z,26.89
2022-08-11T08:00:55.594Z,27.03
2022-08-11T08:03:54.534Z,26.63
2022-08-11T08:06:40.574Z,27.11
2022-08-11T08:09:27.699Z,27.11
2022-08-11T08:12:13.377Z,27.29
2022-08-11T08:14:58.861Z,27.47
2022-08-11T08:18:20.556Z,27.32
2022-08-11T08:20:37.878Z,27.27
2022-08-11T08:23:06.051Z,27.31
2022-08-11T08:25:36.456Z,27.41
2022-08-11T08:28:07.291Z,27.67
2022-08-11T08:30:50.880Z,27.59
2022-08-11T08:33:21.427Z,27.71
2022-08-11T08:36:11.624Z,28.13
2022-08-11T08:38:41.493Z,28.34
2022-08-11T08:41:13.205Z,28.38
2022-08-11T08:43:48.515Z,28.48
2022-08-11T08:46:20.074Z,28.76
2022-08-11T08:48:48.435Z,28.78
2022-08-11T08:52:01.900Z,28.74
2022-08-11T08:54:23.450Z,29.11
2022-08-11T08:56:54.212Z,29.38
2022-08-11T08:59:23.815Z,30.34
2022-08-11T09:01:54.646Z,31.72
2022-08-11T09:04:22.771Z,33.18
2022-08-11T09:06:52.307Z,33.57
2022-08-11T09:09:22.141Z,33.36
2022-08-11T09:11:53.424Z,32.62
2022-08-11T09:14:22.836Z,32.19
2022-08-11T09:16:51.308Z,31.66
2022-08-11T09:19:21.420Z,31.30
2022-08-11T09:22:12.703Z,31.13
2022-08-11T09:24:58.637Z,30.91
2022-08-11T09:27:27.704Z,30.41
2022-08-11T09:29:55.803Z,30.46
2022-08-11T09:32:23.941Z,30.44
2022-08-11T09:34:54.187Z,30.43
2022-08-11T09:37:54.566Z,30.48
2022-08-11T09:40:30.563Z,30.42
2022-08-11T09:43:19.520Z,30.61
2022-08-11T09:45:51.256Z,30.36
2022-08-11T09:48:19.804Z,30.51
2022-08-11T09:50:50.409Z,30.55
2022-08-11T09:53:36.511Z,30.38
2022-08-11T09:56:23.309Z,30.46
2022-08-11T09:58:52.392Z,30.58
2022-08-11T10:01:28.017Z,30.54
2022-08-11T10:03:59.828Z,30.65
2022-08-11T10:06:45.551Z,30.76
2022-08-11T10:09:20.180Z,30.81
2022-08-11T10:11:55.573Z,30.88
2022-08-11T10:14:45.556Z,31.07
2022-08-11T10:17:14.693Z,31.16
2022-08-11T10:19:43.426Z,31.34
2022-08-11T10:22:28.592Z,31.46
2022-08-11T10:25:19.647Z,31.43
2022-08-11T10:28:28.132Z,31.31
2022-08-11T10:30:56.925Z,31.30
2022-08-11T10:33:54.336Z,31.24
2022-08-11T10:36:27.103Z,31.29
2022-08-11T10:38:55.137Z,31.41
2022-08-11T10:42:01.884Z,31.49
2022-08-11T10:44:28.631Z,31.63
2022-08-11T10:47:15.169Z,31.60
2022-08-11T10:49:43.204Z,31.67
2022-08-11T10:52:29.362Z,31.80
2022-08-11T10:55:14.620Z,31.70
2022-08-11T10:58:04.287Z,31.94
2022-08-11T11:00:33.229Z,31.91
2022-08-11T11:03:21.885Z,32.02
2022-08-11T11:06:27.923Z,32.00
2022-08-11T11:09:00.111Z,32.08
2022-08-11T11:11:53.020Z,32.54
2022-08-11T11:14:46.204Z,32.90
2022-08-11T11:17:42.172Z,33.47
2022-08-11T11:20:34.593Z,34.64
2022-08-11T11:23:05.976Z,36.32
2022-08-11T11:25:44.909Z,36.97
2022-08-11T11:28:32.260Z,36.59
2022-08-11T11:31:12.520Z,35.75
2022-08-11T11:34:11.912Z,35.28
2022-08-11T11:36:46.586Z,34.69
2022-08-11T11:39:14.501Z,34.23
2022-08-11T11:41:43.271Z,33.85
2022-08-11T11:44:13.202Z,33.74
2022-08-11T11:46:41.397Z,33.49
2022-08-11T11:49:16.616Z,32.94
2022-08-11T11:51:50.249Z,33.05
2022-08-11T11:54:19.368Z,33.01
2022-08-11T11:56:47.711Z,33.06
2022-08-11T11:59:34.007Z,32.97
2022-08-11T12:02:11.927Z,32.97
2022-08-11T12:04:43.364Z,32.60
2022-08-11T12:07:30.480Z,32.84
2022-08-11T12:09:59.239Z,32.94
2022-08-11T12:12:44.697Z,33.07
2022-08-11T12:15:13.330Z,32.98
2022-08-11T12:17:41.215Z,33.09
2022-08-11T12:20:30.836Z,33.04
2022-08-11T12:23:16.725Z,33.01
2022-08-11T12:26:26.459Z,33.02
2022-08-11T12:28:51.359Z,33.07
2022-08-11T12:31:22.117Z,33.10
2022-08-11T12:33:50.356Z,33.07
2022-08-11T12:36:18.831Z,33.16
2022-08-11T12:38:51.465Z,33.08
2022-08-11T12:41:42.149Z,33.15
2022-08-11T12:44:37.280Z,33.07
2022-08-11T12:47:05.632Z,32.93
2022-08-11T12:49:54.455Z,32.89
2022-08-11T12:52:25.210Z,32.85
2022-08-11T12:54:59.861Z,32.64
2022-08-11T12:57:50.032Z,32.68
2022-08-11T13:00:36.163Z,32.65
2022-08-11T13:03:22.493Z,32.74
2022-08-11T13:05:53.604Z,32.70
2022-08-11T13:08:23.544Z,32.77
2022-08-11T13:11:10.675Z,32.69
2022-08-11T13:13:54.623Z,32.91
2022-08-11T13:16:24.747Z,32.75
2022-08-11T13:18:53.341Z,32.68
2022-08-11T13:21:22.638Z,32.41
2022-08-11T13:24:01.205Z,32.79
2022-08-11T13:26:47.101Z,32.87
2022-08-11T13:29:22.253Z,32.96
2022-08-11T13:31:50.313Z,32.84
2022-08-11T13:34:19.729Z,33.01
2022-08-11T13:36:49.766Z,33.17
2022-08-11T13:39:17.703Z,33.12
2022-08-11T13:41:48.255Z,33.20
2022-08-11T13:44:23.128Z,32.97
2022-08-11T13:46:53.099Z,32.92
2022-08-11T13:49:22.017Z,32.71
2022-08-11T13:51:50.373Z,32.54
2022-08-11T13:54:19.864Z,32.44
2022-08-11T13:56:51.431Z,32.45
2022-08-11T13:59:23.137Z,32.49
2022-08-11T14:02:19.761Z,32.17
2022-08-11T14:04:54.649Z,32.22
2022-08-11T14:07:24.168Z,32.22
2022-08-11T14:09:57.233Z,32.36
2022-08-11T14:12:45.610Z,32.48
2022-08-11T14:15:20.209Z,32.41
2022-08-11T14:17:51.994Z,32.50
2022-08-11T14:20:39.105Z,32.48
2022-08-11T14:23:08.490Z,32.51
2022-08-11T14:26:00.589Z,32.40
2022-08-11T14:28:31.664Z,32.41
2022-08-11T14:31:01.741Z,32.47
2022-08-11T14:33:38.146Z,32.44
2022-08-11T14:36:18.630Z,32.50
2022-08-11T14:38:46.585Z,32.30
2022-08-11T14:41:28.137Z,32.28
2022-08-11T14:44:15.352Z,32.21
2022-08-11T14:47:01.928Z,32.17
2022-08-11T14:49:30.372Z,32.18
2022-08-11T14:51:59.053Z,32.16
2022-08-11T14:54:45.384Z,32.15
2022-08-11T14:59:14.491Z,31.90
2022-08-11T15:01:59.716Z,32.06
2022-08-11T15:04:36.687Z,32.03
2022-08-11T15:07:04.996Z,31.94
2022-08-11T15:10:11.806Z,32.12
2022-08-11T15:12:34.208Z,32.22
2022-08-11T15:15:24.583Z,32.27
2022-08-11T15:17:54.557Z,32.55
2022-08-11T15:20:40.838Z,32.47
2022-08-11T15:23:26.330Z,32.38
2022-08-11T15:25:56.721Z,32.32
2022-08-11T15:28:43.614Z,32.31
2022-08-11T15:31:30.283Z,32.05
2022-08-11T15:34:18.241Z,31.98
2022-08-11T15:37:05.944Z,31.76
2022-08-11T15:39:36.118Z,31.88
2022-08-11T15:42:27.694Z,31.70
2022-08-11T15:45:16.212Z,31.96
2022-08-11T15:47:49.797Z,31.79
2022-08-11T15:50:20.158Z,31.71
2022-08-11T15:52:52.809Z,31.54
2022-08-11T15:55:21.205Z,31.38
2022-08-11T15:58:08.248Z,31.58
2022-08-11T16:00:59.074Z,31.82
2022-08-11T16:04:06.706Z,31.61
2022-08-11T16:06:37.492Z,31.67
2022-08-11T16:09:18.474Z,31.72
2022-08-11T16:11:47.540Z,31.67
2022-08-11T16:14:35.359Z,31.57
2022-08-11T16:17:04.547Z,31.48
2022-08-11T16:19:36.410Z,31.33
2022-08-11T16:22:07.287Z,31.59
2022-08-11T16:26:38.715Z,31.70
2022-08-11T16:27:24.624Z,33.38
2022-08-11T16:29:52.839Z,33.58
2022-08-11T16:32:23.413Z,33.84
2022-08-11T16:35:13.795Z,36.23
2022-08-11T16:38:00.172Z,38.03
2022-08-11T16:40:28.961Z,35.37
2022-08-11T16:43:15.622Z,33.53
2022-08-11T16:46:01.543Z,32.36
2022-08-11T16:48:37.367Z,31.35
2022-08-11T16:51:08.377Z,31.21
2022-08-11T16:53:59.834Z,30.65
2022-08-11T16:56:28.631Z,30.49
2022-08-11T16:59:15.485Z,30.26
2022-08-11T17:01:46.872Z,29.98
2022-08-11T17:04:43.507Z,29.95
2022-08-11T17:07:50.586Z,29.81
2022-08-11T17:10:52.014Z,29.76
2022-08-11T17:13:27.240Z,29.67
2022-08-11T17:16:12.548Z,29.47
2022-08-11T17:18:50.370Z,29.35
2022-08-11T17:21:21.123Z,29.27
2022-08-11T17:23:55.049Z,29.21
2022-08-11T17:26:26.646Z,29.31
2022-08-11T17:28:57.913Z,29.18
2022-08-11T17:31:45.605Z,29.05
2022-08-11T17:34:31.996Z,29.03
2022-08-11T17:37:00.416Z,28.85
2022-08-11T17:39:32.077Z,28.59
2022-08-11T17:42:18.476Z,28.63
2022-08-11T17:45:04.299Z,28.29
2022-08-11T17:47:50.819Z,28.21
2022-08-11T17:50:18.951Z,28.11
2022-08-11T17:53:05.644Z,28.07
2022-08-11T17:55:54.164Z,27.87
2022-08-11T17:58:40.936Z,27.77
2022-08-11T18:01:10.028Z,27.66
2022-08-11T18:03:39.736Z,27.59
2022-08-11T18:06:12.695Z,27.60
2022-08-11T18:09:01.887Z,27.62
2022-08-11T18:12:10.096Z,27.73
2022-08-11T18:14:55.747Z,27.54
2022-08-11T18:17:41.509Z,27.54
2022-08-11T18:20:27.957Z,27.63
2022-08-11T18:23:14.377Z,27.53
2022-08-11T18:26:01.920Z,27.45
2022-08-11T18:28:52.672Z,27.37
2022-08-11T18:31:38.553Z,27.15
2022-08-11T18:34:26.288Z,26.95
2022-08-11T18:37:21.134Z,27.05
2022-08-11T18:40:20.687Z,27.10
2022-08-11T18:43:07.178Z,26.98
2022-08-11T18:46:05.417Z,26.94
2022-08-11T18:48:54.629Z,26.82
2022-08-11T18:51:40.031Z,26.71
2022-08-11T18:54:28.432Z,26.62
2022-08-11T18:57:15.787Z,26.38
2022-08-11T19:00:01.149Z,26.35
2022-08-11T19:02:50.122Z,26.25
2022-08-11T19:06:32.385Z,26.13
2022-08-11T19:08:46.853Z,26.21
2022-08-11T19:11:32.354Z,26.22
2022-08-11T19:14:17.741Z,26.21
2022-08-11T19:17:04.391Z,26.00
2022-08-11T19:19:51.936Z,25.83
2022-08-11T19:22:37.243Z,25.75
2022-08-11T19:25:25.933Z,25.62
2022-08-11T19:28:12.330Z,25.63
2022-08-11T19:30:58.466Z,25.50
2022-08-11T19:34:02.508Z,25.46
2022-08-11T19:36:52.273Z,25.36
2022-08-11T19:39:38.525Z,25.32
2022-08-11T19:42:26.229Z,25.33
2022-08-11T19:45:11.990Z,25.27
2022-08-11T19:48:14.394Z,25.27
2022-08-11T19:51:02.758Z,25.19
2022-08-11T19:53:51.316Z,25.21
2022-08-11T19:56:36.869Z,25.13
2022-08-11T19:59:22.782Z,25.09
2022-08-11T20:02:13.241Z,25.02
2022-08-11T20:05:00.070Z,24.95
2022-08-11T20:07:46.766Z,24.96
2022-08-11T20:10:36.287Z,24.92
2022-08-11T20:13:22.165Z,25.01
2022-08-11T20:16:08.244Z,25.03
2022-08-11T20:18:54.130Z,25.03
2022-08-11T20:21:39.988Z,24.73
2022-08-11T20:24:25.814Z,24.53
2022-08-11T20:27:18.971Z,24.43
2022-08-11T20:30:11.969Z,24.37
2022-08-11T20:32:58.265Z,24.39
2022-08-11T20:35:44.832Z,24.37
2022-08-11T20:38:30.663Z,24.23
2022-08-11T20:41:16.288Z,24.10
2022-08-11T20:44:06.771Z,24.00
2022-08-11T20:46:57.041Z,23.92
2022-08-11T20:49:48.818Z,23.87
2022-08-11T20:52:39.082Z,23.87
2022-08-11T20:55:46.214Z,23.86
2022-08-11T20:58:54.791Z,23.66
2022-08-11T21:01:41.364Z,23.49
2022-08-11T21:04:27.422Z,23.46
2022-08-11T21:07:24.762Z,23.49
2022-08-11T21:10:22.992Z,23.51
2022-08-11T21:13:26.241Z,23.42
2022-08-11T21:16:25.454Z,23.32
2022-08-11T21:19:17.100Z,23.33
2022-08-11T21:22:03.599Z,23.27
2022-08-11T21:24:50.382Z,23.06
2022-08-11T21:27:37.198Z,23.07
2022-08-11T21:30:23.315Z,23.12
2022-08-11T21:33:09.162Z,22.97
2022-08-11T21:35:56.350Z,23.01
2022-08-11T21:38:41.994Z,23.03
2022-08-11T21:41:29.299Z,22.90
2022-08-11T21:44:15.511Z,22.86
2022-08-11T21:47:01.008Z,22.94
2022-08-11T21:49:46.397Z,22.86
2022-08-11T21:52:33.027Z,22.84
2022-08-11T21:55:18.625Z,22.77
2022-08-11T21:58:04.486Z,22.71
2022-08-11T22:00:49.920Z,22.62
2022-08-11T22:03:49.666Z,22.50
2022-08-11T22:06:36.705Z,22.56
2022-08-11T22:09:23.599Z,22.47
2022-08-11T22:12:30.126Z,22.39
2022-08-11T22:15:14.346Z,22.25
2022-08-11T22:17:59.735Z,22.33
2022-08-11T22:20:46.505Z,22.26
2022-08-11T22:23:35.872Z,22.22
2022-08-11T22:26:23.078Z,22.14
2022-08-11T22:29:09.634Z,22.05
2022-08-11T22:31:55.512Z,21.95
2022-08-11T22:34:44.980Z,21.94
2022-08-11T22:37:39.454Z,21.77
2022-08-11T22:40:26.394Z,21.85
2022-08-11T22:43:12.867Z,21.84
2022-08-11T22:45:58.226Z,21.77
2022-08-11T22:48:44.720Z,21.53
2022-08-11T22:51:30.600Z,21.46
2022-08-11T22:54:16.851Z,21.20
2022-08-11T22:57:02.540Z,21.32
2022-08-11T22:59:49.247Z,21.27
2022-08-11T23:02:34.755Z,21.17
2022-08-11T23:05:20.691Z,21.20
2022-08-11T23:08:06.493Z,21.23
2022-08-11T23:10:52.292Z,21.12
2022-08-11T23:13:38.909Z,21.11
2022-08-11T23:16:26.437Z,21.07
2022-08-11T23:19:11.889Z,21.04
2022-08-11T23:21:58.054Z,20.99
2022-08-11T23:24:44.612Z,20.88
2022-08-11T23:27:30.834Z,20.97
2022-08-11T23:30:19.045Z,20.83
2022-08-11T23:33:08.018Z,20.75
2022-08-11T23:35:56.781Z,20.67
2022-08-11T23:38:43.634Z,20.57
2022-08-11T23:41:29.365Z,20.63
2022-08-11T23:44:14.921Z,20.57
2022-08-11T23:47:00.378Z,20.54
2022-08-11T23:49:47.924Z,20.43
2022-08-11T23:52:34.281Z,20.38
2022-08-11T23:55:19.361Z,20.39
2022-08-11T23:58:04.780Z,20.26
